Time;durP1;ratioP1;P1;durP2;ratioP2;P2;SDS_P1;SDS_P2;PMS_P1;PMS_P2;Temp;Humidity;BMP_temperature;BMP_pressure;BME280_temperature;BME280_humidity;BME280_pressure;Samples;Min_cycle;Max_cycle;Signal;HPM_P1;HPM_P2
2022/05/14 00:01:43;;;;;;;10.95;6.07;;;23.10;62.70;;;;;;4920034;28;20205;-79
2022/05/14 00:04:11;;;;;;;11.82;5.32;;;23.10;62.60;;;;;;4962864;28;20193;-79
2022/05/14 00:06:40;;;;;;;13.88;6.72;;;23.10;63.30;;;;;;4961715;28;20883;-79
2022/05/14 00:09:08;;;;;;;10.93;5.63;;;23.00;62.40;;;;;;4960285;28;20831;-80
2022/05/14 00:14:24;;;;;;;12.43;5.97;;;23.10;62.50;;;;;;4960387;28;20194;-79
2022/05/14 00:16:52;;;;;;;10.52;5.88;;;23.10;62.50;;;;;;4960510;28;20214;-80
2022/05/14 00:19:22;;;;;;;11.38;5.70;;;23.10;62.60;;;;;;4964471;28;20202;-79
2022/05/14 00:21:50;;;;;;;12.88;6.03;;;23.10;62.60;;;;;;4960482;28;20208;-78
2022/05/14 00:24:19;;;;;;;13.70;5.85;;;23.00;62.90;;;;;;4957539;28;20805;-79
2022/05/14 00:26:47;;;;;;;10.63;6.15;;;23.00;63.20;;;;;;4962258;28;20200;-79
2022/05/14 00:29:15;;;;;;;13.38;6.20;;;23.00;63.70;;;;;;4956963;28;20202;-79
2022/05/14 00:31:45;;;;;;;15.52;6.47;;;23.00;64.10;;;;;;4960339;28;20206;-78
2022/05/14 00:34:15;;;;;;;13.00;6.70;;;23.00;65.10;;;;;;4959790;28;20217;-79
2022/05/14 00:36:44;;;;;;;10.98;6.10;;;22.90;66.00;;;;;;4960608;28;20725;-79
2022/05/14 00:39:12;;;;;;;11.93;6.82;;;22.90;66.00;;;;;;4963986;28;20245;-79
2022/05/14 00:41:47;;;;;;;10.73;6.10;;;22.90;65.70;;;;;;4955325;28;20204;-80
2022/05/14 00:44:16;;;;;;;9.05;5.55;;;22.90;65.70;;;;;;4964549;28;20208;-80
2022/05/14 00:46:49;;;;;;;9.48;4.78;;;22.90;65.60;;;;;;4962273;28;20577;-78
2022/05/14 00:49:21;;;;;;;9.10;5.00;;;22.80;65.60;;;;;;4964793;28;20201;-80
2022/05/14 00:51:50;;;;;;;10.85;4.60;;;22.90;65.50;;;;;;4964376;28;20205;-80
2022/05/14 00:54:24;;;;;;;9.48;4.90;;;22.80;66.50;;;;;;4966496;28;20209;-80
2022/05/14 00:56:58;;;;;;;9.77;4.20;;;22.80;65.50;;;;;;4962581;28;20611;-79
2022/05/14 00:59:27;;;;;;;7.97;4.30;;;22.80;65.50;;;;;;4960289;28;20295;-80
2022/05/14 01:01:59;;;;;;;11.07;4.43;;;22.90;66.10;;;;;;4959571;28;20212;-79
2022/05/14 01:04:29;;;;;;;11.80;4.25;;;22.80;66.20;;;;;;4963187;28;20214;-79
2022/05/14 01:07:03;;;;;;;8.38;4.10;;;22.80;66.40;;;;;;4962330;28;20294;-79
2022/05/14 01:09:31;;;;;;;4.88;2.97;;;22.80;66.50;;;;;;4958042;28;20207;-80
2022/05/14 01:12:00;;;;;;;7.25;3.38;;;22.80;66.60;;;;;;4960672;28;20880;-80
2022/05/14 01:14:29;;;;;;;9.15;2.92;;;22.80;67.20;;;;;;4959865;28;20202;-80
2022/05/14 01:16:59;;;;;;;7.60;3.47;;;22.80;67.50;;;;;;4965979;28;20755;-78
2022/05/14 01:19:28;;;;;;;6.97;3.00;;;22.80;67.70;;;;;;4964902;28;20676;-79
2022/05/14 01:22:13;;;;;;;6.82;3.20;;;22.80;67.90;;;;;;4964998;28;20205;-79
2022/05/14 01:27:38;;;;;;;6.32;2.60;;;22.80;68.50;;;;;;4961185;28;20203;-79
2022/05/14 01:30:08;;;;;;;6.68;2.33;;;22.80;68.90;;;;;;4958934;28;20239;-78
2022/05/14 01:32:37;;;;;;;5.63;2.70;;;22.70;68.50;;;;;;4960066;28;20197;-79
2022/05/14 01:35:06;;;;;;;4.38;2.50;;;22.70;68.60;;;;;;4963693;28;20202;-79
2022/05/14 01:37:34;;;;;;;3.92;2.17;;;22.70;68.60;;;;;;4966494;28;20695;-79
2022/05/14 01:40:03;;;;;;;4.75;2.50;;;22.70;68.80;;;;;;4966286;28;20201;-78
2022/05/14 01:42:31;;;;;;;5.13;2.42;;;22.70;69.00;;;;;;4965802;28;20860;-80
2022/05/14 01:45:01;;;;;;;4.50;2.63;;;22.70;68.90;;;;;;4963349;28;20201;-80
2022/05/14 01:47:29;;;;;;;5.82;2.88;;;22.70;68.90;;;;;;4963374;28;20229;-80
2022/05/14 01:49:59;;;;;;;5.68;2.45;;;22.70;69.00;;;;;;4963655;28;20674;-78
2022/05/14 01:52:27;;;;;;;6.85;2.67;;;22.70;69.30;;;;;;4966719;28;20206;-78
2022/05/14 01:54:55;;;;;;;4.80;2.75;;;22.70;69.30;;;;;;4964488;28;20201;-80
2022/05/14 01:57:24;;;;;;;5.57;2.92;;;22.70;69.10;;;;;;4961832;28;20201;-80
2022/05/14 01:59:52;;;;;;;5.45;2.95;;;22.70;69.70;;;;;;4963847;28;20237;-78
2022/05/14 02:02:22;;;;;;;7.30;2.40;;;22.70;69.60;;;;;;4964718;28;20197;-79
2022/05/14 02:04:50;;;;;;;5.35;2.38;;;22.70;69.80;;;;;;4964687;28;20596;-80
2022/05/14 02:07:19;;;;;;;4.72;2.70;;;22.70;70.00;;;;;;4961271;28;20208;-79
2022/05/14 02:09:47;;;;;;;7.40;2.58;;;22.60;70.00;;;;;;4965039;28;20206;-78
2022/05/14 02:12:15;;;;;;;4.25;2.33;;;22.60;70.00;;;;;;4965905;28;20201;-79
2022/05/14 02:14:45;;;;;;;7.50;2.50;;;22.60;71.00;;;;;;4965171;28;20209;-79
2022/05/14 02:17:14;;;;;;;8.95;2.85;;;22.60;69.90;;;;;;4963553;28;20205;-79
2022/05/14 02:19:44;;;;;;;6.80;2.20;;;22.60;70.70;;;;;;4963195;28;20312;-79
2022/05/14 02:22:13;;;;;;;5.57;2.70;;;22.60;70.40;;;;;;4964659;28;20652;-79
2022/05/14 02:24:41;;;;;;;4.82;2.88;;;22.50;70.20;;;;;;4964247;28;20204;-78
2022/05/14 02:27:10;;;;;;;6.22;2.50;;;22.50;70.20;;;;;;4961627;28;20787;-79
2022/05/14 02:29:54;;;;;;;7.20;2.70;;;22.50;70.30;;;;;;4965665;28;21095;-80
2022/05/14 02:32:25;;;;;;;8.07;2.58;;;22.50;70.20;;;;;;4964322;28;20201;-79
2022/05/14 02:34:57;;;;;;;4.80;2.53;;;22.50;70.20;;;;;;4963293;28;20194;-79
2022/05/14 02:37:27;;;;;;;8.00;2.63;;;22.40;70.70;;;;;;4962315;28;20221;-80
2022/05/14 02:39:56;;;;;;;5.03;2.92;;;22.40;71.20;;;;;;4963970;28;20871;-79
2022/05/14 02:42:26;;;;;;;5.07;2.78;;;22.40;71.30;;;;;;4959970;28;20285;-79
2022/05/14 02:44:55;;;;;;;4.20;2.17;;;22.40;71.30;;;;;;4957872;28;20256;-79
2022/05/14 02:47:23;;;;;;;5.28;2.80;;;22.40;71.10;;;;;;4961473;28;20229;-79
2022/05/14 02:49:51;;;;;;;5.40;2.67;;;22.30;71.50;;;;;;4962949;28;20193;-79
2022/05/14 02:52:23;;;;;;;6.13;2.50;;;22.30;71.50;;;;;;4961311;28;20209;-79
2022/05/14 02:54:51;;;;;;;9.25;2.88;;;22.30;71.60;;;;;;4964295;28;20201;-79
2022/05/14 02:57:20;;;;;;;8.18;3.10;;;22.30;71.90;;;;;;4960053;28;20202;-79
2022/05/14 02:59:48;;;;;;;5.80;3.00;;;22.20;72.20;;;;;;4964597;28;20229;-79
2022/05/14 03:02:17;;;;;;;9.45;2.92;;;22.20;72.00;;;;;;4962231;28;20876;-80
2022/05/14 03:04:47;;;;;;;5.88;3.15;;;22.20;72.10;;;;;;4965258;28;20201;-78
2022/05/14 03:07:16;;;;;;;6.80;2.67;;;22.20;72.10;;;;;;4962472;28;20607;-79
2022/05/14 03:09:46;;;;;;;7.30;3.00;;;22.10;72.10;;;;;;4961151;28;20197;-80
2022/05/14 03:12:17;;;;;;;6.53;2.75;;;22.10;72.40;;;;;;4962083;28;20209;-80
2022/05/14 03:14:45;;;;;;;4.72;2.40;;;22.10;72.80;;;;;;4956411;28;20288;-81
2022/05/14 03:17:14;;;;;;;8.43;2.92;;;22.10;72.80;;;;;;4957542;28;20221;-80
2022/05/14 03:19:42;;;;;;;6.30;3.08;;;22.10;72.70;;;;;;4963242;28;20225;-79
2022/05/14 03:22:11;;;;;;;4.03;2.55;;;22.10;72.70;;;;;;4959886;28;20212;-80
2022/05/14 03:24:40;;;;;;;3.88;2.70;;;22.10;72.60;;;;;;4959998;28;20201;-80
2022/05/14 03:27:12;;;;;;;7.17;3.10;;;22.00;72.70;;;;;;4962352;28;20688;-79
2022/05/14 03:29:41;;;;;;;6.30;2.73;;;22.00;73.60;;;;;;4963631;28;20186;-79
2022/05/14 03:32:10;;;;;;;6.53;2.67;;;22.00;74.00;;;;;;4961391;28;20206;-79
2022/05/14 03:34:38;;;;;;;5.77;3.20;;;22.00;73.80;;;;;;4959066;28;20286;-80
2022/05/14 03:37:06;;;;;;;7.15;2.90;;;22.00;73.70;;;;;;4962740;28;20197;-79
2022/05/14 03:39:35;;;;;;;6.53;2.57;;;22.00;73.80;;;;;;4961732;28;20340;-79
2022/05/14 03:42:04;;;;;;;4.43;2.63;;;22.00;73.80;;;;;;4961834;28;20206;-78
2022/05/14 03:44:33;;;;;;;5.95;2.70;;;22.00;73.80;;;;;;4958150;28;20217;-78
2022/05/14 03:47:02;;;;;;;5.57;2.50;;;22.00;73.90;;;;;;4957082;28;20240;-78
2022/05/14 03:49:30;;;;;;;6.53;2.70;;;22.00;73.80;;;;;;4961896;28;20202;-80
2022/05/14 03:51:59;;;;;;;8.52;2.75;;;22.00;74.40;;;;;;4961100;28;20209;-78
2022/05/14 03:54:31;;;;;;;11.10;2.90;;;22.00;74.10;;;;;;4962463;28;20190;-79
2022/05/14 03:57:00;;;;;;;8.05;3.08;;;22.00;75.00;;;;;;4963937;28;20194;-80
2022/05/14 03:59:33;;;;;;;7.60;4.30;;;22.00;74.10;;;;;;4963940;28;20217;-80
2022/05/14 04:02:03;;;;;;;8.97;3.83;;;22.00;74.60;;;;;;4960578;28;20205;-78
2022/05/14 04:04:31;;;;;;;9.52;4.10;;;22.10;74.70;;;;;;4960909;28;20228;-80
2022/05/14 04:07:00;;;;;;;9.15;3.70;;;22.10;74.70;;;;;;4961885;28;20284;-78
2022/05/14 04:09:29;;;;;;;7.37;3.53;;;22.10;74.60;;;;;;4957872;28;20671;-80
2022/05/14 04:11:57;;;;;;;6.93;2.50;;;22.10;74.90;;;;;;4958185;28;20198;-79
2022/05/14 04:14:26;;;;;;;5.68;2.42;;;22.10;75.10;;;;;;4960622;28;20206;-79
2022/05/14 04:16:55;;;;;;;7.50;2.72;;;22.10;75.00;;;;;;4963167;28;20205;-78
2022/05/14 04:19:24;;;;;;;4.75;2.60;;;22.20;74.80;;;;;;4962811;28;20321;-79
2022/05/14 04:21:52;;;;;;;7.53;2.90;;;22.20;75.00;;;;;;4961589;28;20209;-77
2022/05/14 04:24:20;;;;;;;13.57;3.05;;;22.20;74.80;;;;;;4963569;28;20202;-79
2022/05/14 04:26:49;;;;;;;7.28;3.13;;;22.20;74.70;;;;;;4960609;28;20198;-79
2022/05/14 04:29:17;;;;;;;8.68;3.10;;;22.30;74.60;;;;;;4965102;28;20198;-78
2022/05/14 04:31:45;;;;;;;7.72;3.20;;;22.30;74.70;;;;;;4957649;28;20204;-79
2022/05/14 04:34:15;;;;;;;8.93;3.08;;;22.30;74.70;;;;;;4962798;28;20205;-78
2022/05/14 04:36:43;;;;;;;7.88;2.83;;;22.30;75.00;;;;;;4959095;28;20204;-79
2022/05/14 04:39:12;;;;;;;5.43;3.10;;;22.30;74.90;;;;;;4964429;28;20237;-79
2022/05/14 04:41:41;;;;;;;12.52;3.10;;;22.40;75.00;;;;;;4961000;28;20328;-78
2022/05/14 04:44:13;;;;;;;7.93;3.53;;;22.40;74.80;;;;;;4963629;28;20272;-78
2022/05/14 04:46:41;;;;;;;10.77;3.40;;;22.40;74.70;;;;;;4962862;28;20269;-79
2022/05/14 04:49:10;;;;;;;7.57;3.33;;;22.40;74.50;;;;;;4963018;28;20244;-78
2022/05/14 04:51:40;;;;;;;5.70;3.30;;;22.40;74.50;;;;;;4962120;28;20209;-79
2022/05/14 04:54:08;;;;;;;8.25;3.08;;;22.40;74.50;;;;;;4955369;28;20199;-79
2022/05/14 04:56:36;;;;;;;10.10;3.95;;;22.50;74.40;;;;;;4962033;28;20861;-78
2022/05/14 04:59:05;;;;;;;8.20;3.60;;;22.50;74.50;;;;;;4960974;28;20218;-78
2022/05/14 05:01:33;;;;;;;5.88;2.88;;;22.50;74.40;;;;;;4963152;28;20206;-78
2022/05/14 05:04:01;;;;;;;8.93;3.17;;;22.60;74.50;;;;;;4964082;28;20224;-78
2022/05/14 05:06:30;;;;;;;11.15;3.55;;;22.60;74.60;;;;;;4963827;28;20872;-78
2022/05/14 05:09:00;;;;;;;8.68;3.38;;;22.70;74.80;;;;;;4958994;28;20202;-78
2022/05/14 05:11:28;;;;;;;6.82;3.35;;;22.70;74.70;;;;;;4964501;28;20206;-79
2022/05/14 05:13:57;;;;;;;7.28;3.45;;;22.80;74.70;;;;;;4960121;28;20599;-78
2022/05/14 05:16:25;;;;;;;8.82;3.28;;;22.90;74.60;;;;;;4960993;28;20228;-78
2022/05/14 05:18:53;;;;;;;9.93;3.72;;;22.90;74.50;;;;;;4961595;28;20206;-79
2022/05/14 05:21:22;;;;;;;6.63;3.70;;;22.90;74.60;;;;;;4962682;28;20202;-78
2022/05/14 05:23:50;;;;;;;7.07;3.63;;;23.00;74.50;;;;;;4962789;28;20198;-79
2022/05/14 05:26:20;;;;;;;6.85;3.55;;;23.00;74.30;;;;;;4963095;28;20198;-78
2022/05/14 05:28:49;;;;;;;8.98;3.95;;;23.10;74.40;;;;;;4961498;28;21006;-78
2022/05/14 05:31:18;;;;;;;14.05;4.10;;;23.10;74.20;;;;;;4966610;28;20198;-79
2022/05/14 05:33:47;;;;;;;7.68;3.92;;;23.20;74.10;;;;;;4967092;28;20694;-79
2022/05/14 05:36:15;;;;;;;8.98;3.35;;;23.20;74.00;;;;;;4965706;28;20594;-79
2022/05/14 05:38:43;;;;;;;7.90;3.70;;;23.30;73.80;;;;;;4963909;28;20206;-78
2022/05/14 05:41:12;;;;;;;7.80;3.63;;;23.30;73.80;;;;;;4961779;28;20221;-78
2022/05/14 05:43:41;;;;;;;9.75;3.72;;;23.40;74.00;;;;;;4965810;28;20725;-79
2022/05/14 05:46:11;;;;;;;9.98;3.70;;;23.40;73.70;;;;;;4963311;28;20202;-78
2022/05/14 05:48:44;;;;;;;7.75;3.30;;;23.40;73.50;;;;;;4966235;28;20209;-78
2022/05/14 05:51:12;;;;;;;11.20;3.53;;;23.50;73.30;;;;;;4958762;28;20207;-78
2022/05/14 05:59:10;;;;;;;10.00;3.35;;;23.80;72.70;;;;;;4960939;28;20194;-79
2022/05/14 06:01:39;;;;;;;5.50;3.05;;;23.90;72.70;;;;;;4961097;28;20218;-79
2022/05/14 06:04:07;;;;;;;9.40;3.70;;;24.00;72.40;;;;;;4964427;28;20293;-78
2022/05/14 06:06:36;;;;;;;6.75;2.75;;;24.00;72.00;;;;;;4960316;28;20206;-79
2022/05/14 06:09:05;;;;;;;6.05;3.42;;;24.10;71.80;;;;;;4964348;28;20298;-76
2022/05/14 06:11:33;;;;;;;6.10;3.40;;;24.20;71.40;;;;;;4961039;28;20198;-76
2022/05/14 06:14:01;;;;;;;10.55;3.97;;;24.30;71.00;;;;;;4960365;28;20197;-78
2022/05/14 06:16:31;;;;;;;6.25;3.67;;;24.30;70.80;;;;;;4959553;28;20213;-78
2022/05/14 06:19:00;;;;;;;9.27;3.40;;;24.40;70.70;;;;;;4965389;28;20204;-77
2022/05/14 06:21:29;;;;;;;10.52;3.35;;;24.50;70.70;;;;;;4962700;28;20605;-78
2022/05/14 06:23:57;;;;;;;8.20;3.30;;;24.60;70.50;;;;;;4963685;28;20205;-76
2022/05/14 06:26:26;;;;;;;11.13;3.75;;;24.70;70.10;;;;;;4962236;28;20213;-78
2022/05/14 06:28:54;;;;;;;9.95;3.45;;;24.80;69.70;;;;;;4964309;28;20194;-76
2022/05/14 06:31:22;;;;;;;7.05;3.50;;;24.90;69.60;;;;;;4966672;28;20206;-79
2022/05/14 06:33:52;;;;;;;7.72;3.28;;;25.00;69.40;;;;;;4962058;28;20265;-81
2022/05/14 06:36:21;;;;;;;4.95;3.00;;;25.10;69.20;;;;;;4964044;28;20228;-80
2022/05/14 06:38:49;;;;;;;11.25;3.75;;;25.20;68.30;;;;;;4965567;28;20265;-79
2022/05/14 06:41:17;;;;;;;10.82;3.42;;;25.30;68.10;;;;;;4964862;28;20217;-79
2022/05/14 06:43:46;;;;;;;7.80;3.63;;;25.30;67.80;;;;;;4964507;28;20189;-79
2022/05/14 06:46:15;;;;;;;9.40;4.03;;;25.40;67.50;;;;;;4961023;28;20685;-79
2022/05/14 06:48:44;;;;;;;6.60;3.10;;;25.40;67.20;;;;;;4968454;28;20210;-78
2022/05/14 06:51:18;;;;;;;6.10;2.90;;;25.40;66.90;;;;;;4966517;28;20656;-78
2022/05/14 06:53:48;;;;;;;8.63;3.53;;;25.40;66.50;;;;;;4965096;28;20237;-79
2022/05/14 06:56:19;;;;;;;8.32;3.70;;;25.40;66.40;;;;;;4961505;28;20205;-79
2022/05/14 06:58:51;;;;;;;6.35;3.08;;;25.40;66.00;;;;;;4962869;28;20860;-75
2022/05/14 07:01:21;;;;;;;11.50;3.63;;;25.40;66.00;;;;;;4964666;28;20688;-76
2022/05/14 07:06:40;;;;;;;7.70;3.17;;;25.50;66.10;;;;;;4920813;28;20570;-76
2022/05/14 07:09:12;;;;;;;5.72;3.22;;;25.50;66.00;;;;;;4960011;28;20288;-77
2022/05/14 07:11:42;;;;;;;6.47;3.50;;;25.60;66.00;;;;;;4963515;28;20194;-76
2022/05/14 07:14:12;;;;;;;7.20;3.70;;;25.70;66.10;;;;;;4963658;28;20668;-76
2022/05/14 07:16:41;;;;;;;8.55;3.35;;;25.70;65.80;;;;;;4963892;28;20202;-76
2022/05/14 07:19:10;;;;;;;7.97;3.50;;;25.80;65.50;;;;;;4961609;28;20197;-75
2022/05/14 07:21:42;;;;;;;5.40;3.35;;;25.90;65.20;;;;;;4961800;28;20790;-79
2022/05/14 07:24:13;;;;;;;6.35;3.97;;;25.90;64.50;;;;;;4963110;28;20194;-77
2022/05/14 07:26:42;;;;;;;9.85;4.05;;;26.00;64.60;;;;;;4963151;28;20556;-76
2022/05/14 07:29:12;;;;;;;7.32;3.55;;;26.00;64.30;;;;;;4961694;28;20202;-76
2022/05/14 07:31:41;;;;;;;5.75;3.75;;;26.00;64.30;;;;;;4964390;28;20190;-76
2022/05/14 07:34:10;;;;;;;8.32;3.53;;;26.10;65.10;;;;;;4963486;28;20615;-76
2022/05/14 07:36:45;;;;;;;10.50;4.13;;;26.20;64.10;;;;;;4963244;28;20614;-77
2022/05/14 07:39:14;;;;;;;9.20;3.45;;;26.20;63.60;;;;;;4963741;28;20239;-76
2022/05/14 07:41:44;;;;;;;7.65;3.65;;;26.30;63.70;;;;;;4963408;28;20221;-77
2022/05/14 07:44:16;;;;;;;9.02;3.72;;;26.40;63.20;;;;;;4961058;28;20225;-77
2022/05/14 07:46:46;;;;;;;5.35;3.30;;;26.50;62.70;;;;;;4961201;28;20235;-76
2022/05/14 07:49:16;;;;;;;14.27;3.70;;;26.50;62.50;;;;;;4961899;28;20194;-77
2022/05/14 07:51:46;;;;;;;11.85;3.72;;;26.60;62.60;;;;;;4962169;28;20584;-78
2022/05/14 07:54:15;;;;;;;10.68;3.63;;;26.60;62.40;;;;;;4959840;28;20194;-77
2022/05/14 07:56:44;;;;;;;5.45;3.30;;;26.70;62.20;;;;;;4963304;28;20205;-77
2022/05/14 07:59:13;;;;;;;5.85;3.45;;;26.70;62.10;;;;;;4965110;28;20565;-75
2022/05/14 08:01:41;;;;;;;8.80;3.65;;;26.80;62.10;;;;;;4965484;28;20229;-76
2022/05/14 08:04:10;;;;;;;9.07;3.60;;;26.80;62.20;;;;;;4964775;28;20232;-76
2022/05/14 08:06:38;;;;;;;7.40;3.15;;;26.90;61.80;;;;;;4961938;28;20210;-75
2022/05/14 08:09:08;;;;;;;8.70;3.20;;;27.00;62.00;;;;;;4959469;28;20209;-76
2022/05/14 08:11:36;;;;;;;10.02;3.25;;;27.10;61.80;;;;;;4963196;28;20205;-75
2022/05/14 08:14:04;;;;;;;6.25;3.63;;;27.10;61.50;;;;;;4963614;28;20213;-76
2022/05/14 08:16:33;;;;;;;5.97;3.03;;;27.20;61.90;;;;;;4956856;28;20428;-75
2022/05/14 08:19:01;;;;;;;8.43;3.83;;;27.30;61.40;;;;;;4961721;28;20237;-77
2022/05/14 08:24:34;;;;;;;10.23;3.65;;;27.40;61.60;;;;;;4955184;28;20212;-77
2022/05/14 08:27:05;;;;;;;5.40;3.15;;;27.50;61.40;;;;;;4957146;28;20190;-74
2022/05/14 08:29:41;;;;;;;6.53;3.28;;;27.60;61.00;;;;;;4957781;28;20197;-75
2022/05/14 08:32:09;;;;;;;7.93;3.30;;;27.60;60.10;;;;;;4953315;28;20202;-78
2022/05/14 08:34:38;;;;;;;7.83;3.60;;;27.70;59.70;;;;;;4960093;28;20455;-78
2022/05/14 08:37:08;;;;;;;5.40;2.90;;;27.80;59.80;;;;;;4958235;28;20209;-77
2022/05/14 08:39:38;;;;;;;7.50;3.42;;;27.90;59.30;;;;;;4960493;28;20202;-77
2022/05/14 08:42:10;;;;;;;8.20;3.15;;;27.90;59.40;;;;;;4959309;28;20202;-78
2022/05/14 08:44:41;;;;;;;5.05;2.90;;;28.00;59.30;;;;;;4959530;28;20194;-77
2022/05/14 08:47:27;;;;;;;6.97;3.13;;;28.00;58.70;;;;;;4956644;28;20226;-78
2022/05/14 08:49:56;;;;;;;9.73;2.97;;;28.00;58.00;;;;;;4961203;28;20204;-78
2022/05/14 08:52:32;;;;;;;4.45;2.70;;;28.00;57.90;;;;;;4961669;28;20201;-78
2022/05/14 08:55:05;;;;;;;6.13;2.50;;;28.10;58.30;;;;;;4956065;28;20216;-79
2022/05/14 08:57:45;;;;;;;7.15;3.05;;;28.10;58.50;;;;;;4954830;28;20794;-77
2022/05/14 09:00:14;;;;;;;12.32;3.30;;;28.10;58.40;;;;;;4963983;28;20201;-77
2022/05/14 09:02:45;;;;;;;4.70;2.83;;;28.20;57.90;;;;;;4963915;28;20234;-79
2022/05/14 09:05:17;;;;;;;7.22;3.67;;;28.20;58.00;;;;;;4961257;28;20210;-77
2022/05/14 09:07:46;;;;;;;11.45;3.40;;;28.20;57.80;;;;;;4962875;28;20213;-78
2022/05/14 09:10:24;;;;;;;8.52;3.88;;;28.20;57.30;;;;;;4967229;28;20302;-77
2022/05/14 09:12:57;;;;;;;7.50;4.03;;;28.20;57.20;;;;;;4962814;28;20192;-74
2022/05/14 09:15:28;;;;;;;6.70;3.67;;;28.20;57.60;;;;;;4965445;28;20291;-75
2022/05/14 09:18:08;;;;;;;9.90;3.70;;;28.20;58.20;;;;;;4959808;28;20714;-76
2022/05/14 09:20:45;;;;;;;9.75;4.05;;;28.20;57.50;;;;;;4956332;28;20221;-76
2022/05/14 09:23:26;;;;;;;8.75;4.20;;;28.20;57.30;;;;;;4964376;28;20691;-79
2022/05/14 09:25:56;;;;;;;9.38;4.00;;;28.20;57.70;;;;;;4966134;28;20860;-80
2022/05/14 09:28:32;;;;;;;7.57;3.53;;;28.20;58.10;;;;;;4959063;28;20210;-79
2022/05/14 09:31:01;;;;;;;5.22;3.80;;;28.10;58.20;;;;;;4965858;28;20305;-76
2022/05/14 09:33:38;;;;;;;5.15;3.45;;;28.10;58.40;;;;;;4961334;28;20242;-80
2022/05/14 09:36:30;;;;;;;7.45;3.45;;;28.10;57.70;;;;;;4962102;28;20198;-77
2022/05/14 09:39:04;;;;;;;8.73;3.80;;;28.10;57.60;;;;;;4967103;28;20575;-78
2022/05/14 09:41:40;;;;;;;5.50;3.80;;;28.10;57.30;;;;;;4965500;28;20197;-77
2022/05/14 09:44:16;;;;;;;6.28;3.72;;;28.00;56.30;;;;;;4961325;28;20204;-77
2022/05/14 09:46:44;;;;;;;9.90;4.25;;;28.00;56.40;;;;;;4963616;28;20237;-76
2022/05/14 09:49:21;;;;;;;7.35;3.45;;;28.00;56.90;;;;;;4965484;28;20260;-78
2022/05/14 09:51:54;;;;;;;9.80;4.00;;;28.00;56.80;;;;;;4965507;28;20196;-75
2022/05/14 09:54:27;;;;;;;6.65;4.20;;;28.10;57.20;;;;;;4967993;28;20193;-79
2022/05/14 09:57:38;;;;;;;7.70;3.70;;;28.20;57.60;;;;;;4965285;28;20202;-78
2022/05/14 10:00:14;;;;;;;7.97;3.17;;;28.30;57.20;;;;;;4921590;28;20200;-76
2022/05/14 10:03:15;;;;;;;5.15;3.15;;;28.30;57.00;;;;;;4962933;28;20206;-78
2022/05/14 10:05:54;;;;;;;5.05;3.58;;;28.40;56.30;;;;;;4967119;28;20232;-76
2022/05/14 10:08:44;;;;;;;7.72;4.10;;;28.50;56.70;;;;;;4957704;28;20229;-77
2022/05/14 10:11:18;;;;;;;4.80;3.60;;;28.60;55.90;;;;;;4963260;28;20342;-76
2022/05/14 10:13:54;;;;;;;7.25;3.88;;;28.60;56.10;;;;;;4967460;28;20198;-76
2022/05/14 10:16:26;;;;;;;8.73;3.45;;;28.60;56.30;;;;;;4965468;28;20560;-78
2022/05/14 10:19:18;;;;;;;5.78;3.17;;;28.70;56.20;;;;;;4962578;28;20242;-79
2022/05/14 10:21:57;;;;;;;4.93;3.20;;;28.70;55.90;;;;;;4962797;28;20190;-75
2022/05/14 10:27:50;;;;;;;6.05;3.25;;;28.80;55.20;;;;;;4957281;28;20210;-75
2022/05/14 10:30:25;;;;;;;8.73;3.60;;;28.90;54.70;;;;;;4964700;28;20198;-77
2022/05/14 10:33:00;;;;;;;6.55;3.30;;;28.90;54.90;;;;;;4960238;28;20185;-78
2022/05/14 10:35:31;;;;;;;5.35;3.55;;;29.00;54.80;;;;;;4965479;28;20198;-80
2022/05/14 10:38:06;;;;;;;6.25;3.33;;;29.00;55.00;;;;;;4965191;28;20197;-78
2022/05/14 10:40:38;;;;;;;6.45;3.63;;;29.20;55.00;;;;;;4963696;28;20200;-80
2022/05/14 10:43:29;;;;;;;10.30;4.20;;;29.20;54.60;;;;;;4966034;28;20212;-76
2022/05/14 10:46:00;;;;;;;5.60;3.85;;;29.30;54.20;;;;;;4965313;28;20198;-77
2022/05/14 10:48:37;;;;;;;11.32;4.07;;;29.30;54.40;;;;;;4963887;28;20684;-79
2022/05/14 10:51:09;;;;;;;6.63;4.03;;;29.40;54.60;;;;;;4965731;28;20278;-78
2022/05/14 10:53:42;;;;;;;7.00;4.20;;;29.40;54.70;;;;;;4959778;28;20194;-77
2022/05/14 10:56:14;;;;;;;8.27;3.90;;;29.50;54.50;;;;;;4963753;28;20304;-76
2022/05/14 10:58:54;;;;;;;6.82;3.58;;;29.50;54.40;;;;;;4964278;28;20224;-75
2022/05/14 11:01:32;;;;;;;5.05;3.40;;;29.50;54.30;;;;;;4959852;28;20201;-75
2022/05/14 11:04:10;;;;;;;5.90;3.60;;;29.50;54.30;;;;;;4963899;28;20705;-78
2022/05/14 11:06:54;;;;;;;4.80;3.63;;;29.50;54.40;;;;;;4965062;28;20687;-79
2022/05/14 11:09:36;;;;;;;6.45;3.58;;;29.60;54.40;;;;;;4964951;28;20225;-77
2022/05/14 11:12:08;;;;;;;6.47;3.30;;;29.60;54.20;;;;;;4966306;28;20252;-74
2022/05/14 11:14:40;;;;;;;8.35;3.63;;;29.60;54.40;;;;;;4956308;28;20241;-79
2022/05/14 11:17:21;;;;;;;6.78;3.40;;;29.70;54.50;;;;;;4963788;28;20675;-77
2022/05/14 11:19:50;;;;;;;6.07;3.60;;;29.70;54.20;;;;;;4963363;28;20198;-77
2022/05/14 11:22:24;;;;;;;7.32;3.45;;;29.70;54.20;;;;;;4965081;28;20289;-78
2022/05/14 11:24:53;;;;;;;4.32;3.15;;;29.70;54.50;;;;;;4959415;28;20206;-76
2022/05/14 11:27:28;;;;;;;8.90;4.18;;;29.70;54.40;;;;;;4959315;28;20205;-77
2022/05/14 11:30:00;;;;;;;8.68;3.67;;;29.70;54.20;;;;;;4966028;28;20201;-78
2022/05/14 11:32:45;;;;;;;6.60;3.42;;;29.70;53.90;;;;;;4965143;28;20193;-79
2022/05/14 11:35:15;;;;;;;9.30;3.30;;;29.70;54.20;;;;;;4965326;28;20198;-79
2022/05/14 11:37:46;;;;;;;4.22;2.90;;;29.70;54.40;;;;;;4963557;28;20202;-77
2022/05/14 11:40:25;;;;;;;4.75;3.05;;;29.80;54.50;;;;;;4958883;28;20567;-76
2022/05/14 11:43:06;;;;;;;4.65;2.85;;;29.80;54.50;;;;;;4959490;28;20213;-77
2022/05/14 11:45:37;;;;;;;5.00;3.03;;;29.90;54.40;;;;;;4964579;28;20217;-80
2022/05/14 11:48:10;;;;;;;9.57;3.92;;;29.90;53.80;;;;;;4964661;28;20229;-80
2022/05/14 11:50:49;;;;;;;4.50;3.28;;;29.90;54.20;;;;;;4968015;28;20201;-80
2022/05/14 11:53:29;;;;;;;8.32;3.78;;;30.00;54.20;;;;;;4962450;28;20281;-76
2022/05/14 11:56:12;;;;;;;5.38;3.08;;;30.10;53.40;;;;;;4959066;28;20226;-79
2022/05/14 11:58:52;;;;;;;5.07;3.00;;;30.10;53.20;;;;;;4962817;28;20190;-80
2022/05/14 12:01:25;;;;;;;4.38;2.90;;;30.20;53.70;;;;;;4964545;28;20197;-79
2022/05/14 12:03:59;;;;;;;4.68;3.08;;;30.20;53.50;;;;;;4960334;28;20201;-77
2022/05/14 12:06:48;;;;;;;5.05;2.85;;;30.30;53.60;;;;;;4958126;28;20910;-81
2022/05/14 12:09:31;;;;;;;5.20;3.03;;;30.30;53.30;;;;;;4964705;28;20198;-78
2022/05/14 12:12:06;;;;;;;4.90;2.72;;;30.40;53.00;;;;;;4966127;28;20190;-77
2022/05/14 12:14:38;;;;;;;4.90;2.85;;;30.40;52.70;;;;;;4964248;28;20217;-79
2022/05/14 12:17:16;;;;;;;5.07;2.88;;;30.40;52.60;;;;;;4966220;28;20202;-76
2022/05/14 12:19:52;;;;;;;3.90;2.67;;;30.50;52.20;;;;;;4956046;28;20292;-77
2022/05/14 12:22:29;;;;;;;6.95;3.22;;;30.50;51.90;;;;;;4965985;28;20190;-77
2022/05/14 12:25:02;;;;;;;8.85;2.65;;;30.50;51.40;;;;;;4964123;28;20209;-77
2022/05/14 12:27:33;;;;;;;7.38;3.08;;;30.60;51.10;;;;;;4961523;28;20205;-79
2022/05/14 12:30:05;;;;;;;5.82;2.67;;;30.50;51.00;;;;;;4965366;28;20201;-78
2022/05/14 12:35:33;;;;;;;5.65;2.70;;;30.60;51.00;;;;;;4961219;28;20197;-78
2022/05/14 12:38:06;;;;;;;6.70;3.50;;;30.50;50.50;;;;;;4960600;28;20225;-77
2022/05/14 12:40:36;;;;;;;4.88;2.92;;;30.60;50.60;;;;;;4968488;28;20208;-76
2022/05/14 12:43:07;;;;;;;6.20;3.10;;;30.50;50.60;;;;;;4966855;28;20197;-76
2022/05/14 12:45:38;;;;;;;4.30;2.83;;;30.40;50.20;;;;;;4966319;28;20211;-76
2022/05/14 12:48:08;;;;;;;4.00;2.58;;;30.40;50.70;;;;;;4966040;28;20754;-78
2022/05/14 12:50:41;;;;;;;3.67;2.80;;;30.40;50.60;;;;;;4967601;28;20221;-76
2022/05/14 12:53:12;;;;;;;8.23;2.92;;;30.30;50.10;;;;;;4969993;28;20285;-76
2022/05/14 12:55:42;;;;;;;7.70;3.05;;;30.20;50.50;;;;;;4970266;28;20205;-80
2022/05/14 12:58:12;;;;;;;8.23;3.50;;;30.20;50.70;;;;;;4967062;28;20852;-77
2022/05/14 13:00:44;;;;;;;4.43;2.83;;;30.20;50.40;;;;;;4966717;28;20210;-77
2022/05/14 13:03:23;;;;;;;5.50;3.30;;;30.10;50.70;;;;;;4964223;28;20201;-78
2022/05/14 13:05:58;;;;;;;6.45;3.20;;;30.10;50.70;;;;;;4966638;28;20214;-78
2022/05/14 13:08:28;;;;;;;5.38;2.80;;;30.10;51.30;;;;;;4961706;28;20203;-78
2022/05/14 13:11:00;;;;;;;4.35;2.72;;;30.10;51.40;;;;;;4957724;28;20201;-78
2022/05/14 13:13:37;;;;;;;3.72;2.85;;;30.10;51.10;;;;;;4956019;28;20195;-78
2022/05/14 13:16:12;;;;;;;4.07;3.15;;;30.20;51.40;;;;;;4964340;28;20194;-76
2022/05/14 13:18:45;;;;;;;4.53;2.90;;;30.20;51.60;;;;;;4954785;28;20194;-78
2022/05/14 13:21:21;;;;;;;6.90;2.97;;;30.30;51.60;;;;;;4951735;28;20202;-77
2022/05/14 13:23:58;;;;;;;4.80;2.70;;;30.30;51.50;;;;;;4961791;28;20206;-78
2022/05/14 13:26:33;;;;;;;6.57;2.97;;;30.30;51.10;;;;;;4961052;28;20193;-79
2022/05/14 13:29:14;;;;;;;5.68;3.25;;;30.40;51.30;;;;;;4967375;28;20201;-77
2022/05/14 13:31:44;;;;;;;5.82;3.05;;;30.40;51.40;;;;;;4965460;28;20201;-77